sensor_id;sensor_type;location;lat;lon;timestamp;P1;durP1;ratioP1;P2;durP2;ratioP2
30000;SDS011;16845;48.670;9.000;2022-07-23T00:00:48;7.80;;;5.47;;
30000;SDS011;16845;48.670;9.000;2022-07-23T00:03:16;10.05;;;5.28;;
30000;SDS011;16845;48.670;9.000;2022-07-23T00:05:44;6.30;;;4.63;;
30000;SDS011;16845;48.670;9.000;2022-07-23T00:08:12;9.63;;;4.97;;
30000;SDS011;16845;48.670;9.000;2022-07-23T00:10:40;7.68;;;4.43;;
30000;SDS011;16845;48.670;9.000;2022-07-23T00:13:08;5.35;;;4.50;;
30000;SDS011;16845;48.670;9.000;2022-07-23T00:15:36;6.00;;;5.38;;
30000;SDS011;16845;48.670;9.000;2022-07-23T00:18:05;7.70;;;4.50;;
30000;SDS011;16845;48.670;9.000;2022-07-23T00:20:33;5.35;;;4.10;;
30000;SDS011;16845;48.670;9.000;2022-07-23T00:23:01;4.60;;;4.20;;
30000;SDS011;16845;48.670;9.000;2022-07-23T00:25:29;5.80;;;4.38;;
30000;SDS011;16845;48.670;9.000;2022-07-23T00:27:57;6.10;;;4.57;;
30000;SDS011;16845;48.670;9.000;2022-07-23T00:30:26;6.90;;;4.75;;
30000;SDS011;16845;48.670;9.000;2022-07-23T00:32:58;6.75;;;4.90;;
30000;SDS011;16845;48.670;9.000;2022-07-23T00:35:31;6.85;;;5.57;;
30000;SDS011;16845;48.670;9.000;2022-07-23T00:38:02;7.47;;;4.78;;
30000;SDS011;16845;48.670;9.000;2022-07-23T00:40:31;5.68;;;5.00;;
30000;SDS011;16845;48.670;9.000;2022-07-23T00:42:59;6.97;;;4.72;;
30000;SDS011;16845;48.670;9.000;2022-07-23T00:45:27;6.85;;;4.93;;
30000;SDS011;16845;48.670;9.000;2022-07-23T00:47:55;8.30;;;5.43;;
30000;SDS011;16845;48.670;9.000;2022-07-23T00:50:24;7.05;;;5.68;;
30000;SDS011;16845;48.670;9.000;2022-07-23T00:52:53;6.53;;;4.78;;
30000;SDS011;16845;48.670;9.000;2022-07-23T00:55:21;5.82;;;5.20;;
30000;SDS011;16845;48.670;9.000;2022-07-23T00:57:49;6.18;;;4.97;;
30000;SDS011;16845;48.670;9.000;2022-07-23T01:00:18;9.95;;;5.18;;
30000;SDS011;16845;48.670;9.000;2022-07-23T01:02:45;6.07;;;4.30;;
30000;SDS011;16845;48.670;9.000;2022-07-23T01:05:14;6.43;;;4.90;;
30000;SDS011;16845;48.670;9.000;2022-07-23T01:07:42;7.05;;;4.70;;
30000;SDS011;16845;48.670;9.000;2022-07-23T01:10:12;6.00;;;4.53;;
30000;SDS011;16845;48.670;9.000;2022-07-23T01:12:59;6.47;;;4.43;;
30000;SDS011;16845;48.670;9.000;2022-07-23T01:15:28;5.80;;;4.55;;
30000;SDS011;16845;48.670;9.000;2022-07-23T01:17:56;5.07;;;4.57;;
30000;SDS011;16845;48.670;9.000;2022-07-23T01:20:24;6.38;;;5.10;;
30000;SDS011;16845;48.670;9.000;2022-07-23T01:22:53;4.70;;;4.20;;
30000;SDS011;16845;48.670;9.000;2022-07-23T01:25:22;6.03;;;4.57;;
30000;SDS011;16845;48.670;9.000;2022-07-23T01:27:50;6.13;;;5.15;;
30000;SDS011;16845;48.670;9.000;2022-07-23T01:30:19;4.80;;;4.35;;
30000;SDS011;16845;48.670;9.000;2022-07-23T01:32:48;5.07;;;4.57;;
30000;SDS011;16845;48.670;9.000;2022-07-23T01:35:15;6.55;;;5.22;;
30000;SDS011;16845;48.670;9.000;2022-07-23T01:37:43;4.57;;;4.18;;
30000;SDS011;16845;48.670;9.000;2022-07-23T01:40:13;6.53;;;5.03;;
30000;SDS011;16845;48.670;9.000;2022-07-23T01:42:41;5.75;;;4.47;;
30000;SDS011;16845;48.670;9.000;2022-07-23T01:45:09;7.15;;;4.72;;
30000;SDS011;16845;48.670;9.000;2022-07-23T01:47:37;6.95;;;5.03;;
30000;SDS011;16845;48.670;9.000;2022-07-23T01:50:05;5.85;;;4.93;;
30000;SDS011;16845;48.670;9.000;2022-07-23T01:52:34;5.80;;;4.57;;
30000;SDS011;16845;48.670;9.000;2022-07-23T01:55:02;5.65;;;4.55;;
30000;SDS011;16845;48.670;9.000;2022-07-23T01:57:33;5.38;;;4.75;;
30000;SDS011;16845;48.670;9.000;2022-07-23T02:00:01;9.40;;;4.60;;
30000;SDS011;16845;48.670;9.000;2022-07-23T02:02:30;6.60;;;5.20;;
30000;SDS011;16845;48.670;9.000;2022-07-23T02:04:58;7.10;;;4.80;;
30000;SDS011;16845;48.670;9.000;2022-07-23T02:07:25;5.82;;;4.63;;
30000;SDS011;16845;48.670;9.000;2022-07-23T02:09:58;7.75;;;4.28;;
30000;SDS011;16845;48.670;9.000;2022-07-23T02:12:26;6.13;;;4.78;;
30000;SDS011;16845;48.670;9.000;2022-07-23T02:14:55;7.47;;;5.07;;
30000;SDS011;16845;48.670;9.000;2022-07-23T02:17:24;8.93;;;4.95;;
30000;SDS011;16845;48.670;9.000;2022-07-23T02:19:52;5.30;;;4.38;;
30000;SDS011;16845;48.670;9.000;2022-07-23T02:22:20;5.95;;;5.18;;
30000;SDS011;16845;48.670;9.000;2022-07-23T02:24:47;6.75;;;5.43;;
30000;SDS011;16845;48.670;9.000;2022-07-23T02:27:16;5.65;;;4.93;;
30000;SDS011;16845;48.670;9.000;2022-07-23T02:29:44;7.15;;;5.07;;
30000;SDS011;16845;48.670;9.000;2022-07-23T02:32:13;7.07;;;5.28;;
30000;SDS011;16845;48.670;9.000;2022-07-23T02:34:41;6.57;;;4.47;;
30000;SDS011;16845;48.670;9.000;2022-07-23T02:37:09;6.95;;;4.50;;
30000;SDS011;16845;48.670;9.000;2022-07-23T02:39:36;7.72;;;5.97;;
30000;SDS011;16845;48.670;9.000;2022-07-23T02:42:04;6.13;;;5.10;;
30000;SDS011;16845;48.670;9.000;2022-07-23T02:44:32;11.02;;;5.10;;
30000;SDS011;16845;48.670;9.000;2022-07-23T02:47:00;6.03;;;4.40;;
30000;SDS011;16845;48.670;9.000;2022-07-23T02:49:30;8.48;;;4.97;;
30000;SDS011;16845;48.670;9.000;2022-07-23T02:51:58;6.35;;;5.15;;
30000;SDS011;16845;48.670;9.000;2022-07-23T02:54:26;8.63;;;4.55;;
30000;SDS011;16845;48.670;9.000;2022-07-23T02:56:53;6.63;;;4.88;;
30000;SDS011;16845;48.670;9.000;2022-07-23T02:59:21;6.75;;;5.22;;
30000;SDS011;16845;48.670;9.000;2022-07-23T03:01:49;7.25;;;5.40;;
30000;SDS011;16845;48.670;9.000;2022-07-23T03:04:17;5.85;;;4.30;;
30000;SDS011;16845;48.670;9.000;2022-07-23T03:06:46;7.13;;;4.72;;
30000;SDS011;16845;48.670;9.000;2022-07-23T03:09:14;9.07;;;5.30;;
30000;SDS011;16845;48.670;9.000;2022-07-23T03:11:42;6.78;;;5.45;;
30000;SDS011;16845;48.670;9.000;2022-07-23T03:14:10;8.05;;;5.53;;
30000;SDS011;16845;48.670;9.000;2022-07-23T03:16:39;6.55;;;5.05;;
30000;SDS011;16845;48.670;9.000;2022-07-23T03:19:07;7.18;;;5.20;;
30000;SDS011;16845;48.670;9.000;2022-07-23T03:21:35;6.45;;;4.97;;
30000;SDS011;16845;48.670;9.000;2022-07-23T03:24:08;7.80;;;4.53;;
30000;SDS011;16845;48.670;9.000;2022-07-23T03:26:36;6.93;;;5.82;;
30000;SDS011;16845;48.670;9.000;2022-07-23T03:29:04;6.05;;;5.30;;
30000;SDS011;16845;48.670;9.000;2022-07-23T03:31:32;7.22;;;5.72;;
30000;SDS011;16845;48.670;9.000;2022-07-23T03:34:00;8.07;;;5.00;;
30000;SDS011;16845;48.670;9.000;2022-07-23T03:36:28;7.40;;;5.55;;
30000;SDS011;16845;48.670;9.000;2022-07-23T03:38:56;5.22;;;4.78;;
30000;SDS011;16845;48.670;9.000;2022-07-23T03:41:28;5.88;;;5.25;;
30000;SDS011;16845;48.670;9.000;2022-07-23T03:43:56;7.13;;;4.97;;
30000;SDS011;16845;48.670;9.000;2022-07-23T03:46:24;6.03;;;4.95;;
30000;SDS011;16845;48.670;9.000;2022-07-23T03:48:52;6.63;;;5.88;;
30000;SDS011;16845;48.670;9.000;2022-07-23T03:51:24;6.18;;;5.40;;
30000;SDS011;16845;48.670;9.000;2022-07-23T03:53:52;7.30;;;5.43;;
30000;SDS011;16845;48.670;9.000;2022-07-23T03:56:20;6.60;;;5.07;;
30000;SDS011;16845;48.670;9.000;2022-07-23T03:58:50;8.38;;;5.32;;
30000;SDS011;16845;48.670;9.000;2022-07-23T04:01:18;6.50;;;4.82;;
30000;SDS011;16845;48.670;9.000;2022-07-23T04:03:46;6.95;;;5.90;;
30000;SDS011;16845;48.670;9.000;2022-07-23T04:06:14;8.50;;;5.45;;
30000;SDS011;16845;48.670;9.000;2022-07-23T04:08:42;8.88;;;5.60;;
30000;SDS011;16845;48.670;9.000;2022-07-23T04:11:10;8.98;;;5.93;;
30000;SDS011;16845;48.670;9.000;2022-07-23T04:13:38;7.82;;;5.45;;
30000;SDS011;16845;48.670;9.000;2022-07-23T04:16:07;6.82;;;5.95;;
30000;SDS011;16845;48.670;9.000;2022-07-23T04:18:35;7.88;;;5.50;;
30000;SDS011;16845;48.670;9.000;2022-07-23T04:21:03;8.80;;;5.20;;
30000;SDS011;16845;48.670;9.000;2022-07-23T04:23:31;5.68;;;4.70;;
30000;SDS011;16845;48.670;9.000;2022-07-23T04:25:59;6.93;;;6.22;;
30000;SDS011;16845;48.670;9.000;2022-07-23T04:28:27;6.50;;;5.47;;
30000;SDS011;16845;48.670;9.000;2022-07-23T04:30:55;7.47;;;5.53;;
30000;SDS011;16845;48.670;9.000;2022-07-23T04:33:25;8.52;;;6.30;;
30000;SDS011;16845;48.670;9.000;2022-07-23T04:35:53;10.55;;;6.47;;
30000;SDS011;16845;48.670;9.000;2022-07-23T04:38:21;7.38;;;5.25;;
30000;SDS011;16845;48.670;9.000;2022-07-23T04:40:48;8.55;;;5.75;;
30000;SDS011;16845;48.670;9.000;2022-07-23T04:43:17;8.45;;;6.10;;
30000;SDS011;16845;48.670;9.000;2022-07-23T04:45:44;8.75;;;5.60;;
30000;SDS011;16845;48.670;9.000;2022-07-23T04:48:13;10.93;;;6.03;;
30000;SDS011;16845;48.670;9.000;2022-07-23T04:50:44;8.18;;;5.97;;
30000;SDS011;16845;48.670;9.000;2022-07-23T04:53:11;7.38;;;6.10;;
30000;SDS011;16845;48.670;9.000;2022-07-23T04:55:39;7.32;;;5.35;;
30000;SDS011;16845;48.670;9.000;2022-07-23T04:58:07;5.82;;;5.13;;
30000;SDS011;16845;48.670;9.000;2022-07-23T05:00:35;9.35;;;5.55;;
30000;SDS011;16845;48.670;9.000;2022-07-23T05:03:03;7.22;;;5.35;;
30000;SDS011;16845;48.670;9.000;2022-07-23T05:05:31;7.18;;;5.10;;
30000;SDS011;16845;48.670;9.000;2022-07-23T05:08:00;6.93;;;5.43;;
30000;SDS011;16845;48.670;9.000;2022-07-23T05:10:28;12.35;;;5.15;;
30000;SDS011;16845;48.670;9.000;2022-07-23T05:12:56;7.70;;;6.05;;
30000;SDS011;16845;48.670;9.000;2022-07-23T05:15:24;7.90;;;5.85;;
30000;SDS011;16845;48.670;9.000;2022-07-23T05:17:52;6.80;;;5.63;;
30000;SDS011;16845;48.670;9.000;2022-07-23T05:20:20;7.78;;;5.85;;
30000;SDS011;16845;48.670;9.000;2022-07-23T05:22:48;6.93;;;5.50;;
30000;SDS011;16845;48.670;9.000;2022-07-23T05:25:17;6.93;;;6.20;;
30000;SDS011;16845;48.670;9.000;2022-07-23T05:27:45;8.38;;;5.93;;
30000;SDS011;16845;48.670;9.000;2022-07-23T05:30:13;7.03;;;5.57;;
30000;SDS011;16845;48.670;9.000;2022-07-23T05:32:41;10.50;;;5.63;;
30000;SDS011;16845;48.670;9.000;2022-07-23T05:35:09;6.13;;;5.43;;
30000;SDS011;16845;48.670;9.000;2022-07-23T05:37:37;6.90;;;5.93;;
30000;SDS011;16845;48.670;9.000;2022-07-23T05:40:06;8.65;;;5.90;;
30000;SDS011;16845;48.670;9.000;2022-07-23T05:42:37;7.68;;;5.55;;
30000;SDS011;16845;48.670;9.000;2022-07-23T05:45:06;6.95;;;5.25;;
30000;SDS011;16845;48.670;9.000;2022-07-23T05:47:39;6.60;;;5.63;;
30000;SDS011;16845;48.670;9.000;2022-07-23T05:50:10;7.38;;;5.40;;
30000;SDS011;16845;48.670;9.000;2022-07-23T05:52:39;6.95;;;5.90;;
30000;SDS011;16845;48.670;9.000;2022-07-23T05:55:09;6.90;;;5.65;;
30000;SDS011;16845;48.670;9.000;2022-07-23T05:57:40;9.43;;;6.13;;
30000;SDS011;16845;48.670;9.000;2022-07-23T06:00:09;7.68;;;6.07;;
30000;SDS011;16845;48.670;9.000;2022-07-23T06:02:38;7.65;;;6.28;;
30000;SDS011;16845;48.670;9.000;2022-07-23T06:05:07;9.40;;;6.93;;
30000;SDS011;16845;48.670;9.000;2022-07-23T06:07:35;8.02;;;6.78;;
30000;SDS011;16845;48.670;9.000;2022-07-23T06:10:04;6.95;;;5.93;;
30000;SDS011;16845;48.670;9.000;2022-07-23T06:12:32;10.18;;;7.18;;
30000;SDS011;16845;48.670;9.000;2022-07-23T06:15:02;8.40;;;6.45;;
30000;SDS011;16845;48.670;9.000;2022-07-23T06:17:36;11.07;;;7.72;;
30000;SDS011;16845;48.670;9.000;2022-07-23T06:20:05;8.32;;;6.72;;
30000;SDS011;16845;48.670;9.000;2022-07-23T06:22:34;9.57;;;6.93;;
30000;SDS011;16845;48.670;9.000;2022-07-23T06:25:03;9.00;;;7.05;;
30000;SDS011;16845;48.670;9.000;2022-07-23T06:27:44;8.23;;;6.97;;
30000;SDS011;16845;48.670;9.000;2022-07-23T06:30:13;7.70;;;6.90;;
30000;SDS011;16845;48.670;9.000;2022-07-23T06:32:44;10.77;;;6.68;;
30000;SDS011;16845;48.670;9.000;2022-07-23T06:35:12;7.07;;;6.13;;
30000;SDS011;16845;48.670;9.000;2022-07-23T06:37:39;8.23;;;7.38;;
30000;SDS011;16845;48.670;9.000;2022-07-23T06:40:08;9.57;;;7.30;;
30000;SDS011;16845;48.670;9.000;2022-07-23T06:42:36;9.77;;;7.13;;
30000;SDS011;16845;48.670;9.000;2022-07-23T06:45:05;8.20;;;6.70;;
30000;SDS011;16845;48.670;9.000;2022-07-23T06:47:36;7.72;;;6.60;;
30000;SDS011;16845;48.670;9.000;2022-07-23T06:50:05;8.10;;;6.55;;
30000;SDS011;16845;48.670;9.000;2022-07-23T06:52:33;10.52;;;6.55;;
30000;SDS011;16845;48.670;9.000;2022-07-23T06:55:07;7.45;;;6.65;;
30000;SDS011;16845;48.670;9.000;2022-07-23T06:57:35;7.60;;;6.80;;
30000;SDS011;16845;48.670;9.000;2022-07-23T07:00:04;12.80;;;6.20;;
30000;SDS011;16845;48.670;9.000;2022-07-23T07:02:32;9.43;;;6.10;;
30000;SDS011;16845;48.670;9.000;2022-07-23T07:05:02;8.30;;;6.25;;
30000;SDS011;16845;48.670;9.000;2022-07-23T07:07:32;10.57;;;6.68;;
30000;SDS011;16845;48.670;9.000;2022-07-23T07:09:59;8.00;;;6.03;;
30000;SDS011;16845;48.670;9.000;2022-07-23T07:12:27;8.98;;;6.63;;
30000;SDS011;16845;48.670;9.000;2022-07-23T07:14:56;6.25;;;5.65;;
30000;SDS011;16845;48.670;9.000;2022-07-23T07:17:24;6.15;;;5.55;;
30000;SDS011;16845;48.670;9.000;2022-07-23T07:19:52;6.65;;;6.00;;
30000;SDS011;16845;48.670;9.000;2022-07-23T07:22:21;6.43;;;5.82;;
30000;SDS011;16845;48.670;9.000;2022-07-23T07:24:49;9.02;;;5.50;;
30000;SDS011;16845;48.670;9.000;2022-07-23T07:27:17;8.07;;;5.25;;
30000;SDS011;16845;48.670;9.000;2022-07-23T07:29:44;6.65;;;5.75;;
30000;SDS011;16845;48.670;9.000;2022-07-23T07:32:12;7.35;;;5.93;;
30000;SDS011;16845;48.670;9.000;2022-07-23T07:35:00;8.52;;;5.95;;
30000;SDS011;16845;48.670;9.000;2022-07-23T07:37:29;6.30;;;4.82;;
30000;SDS011;16845;48.670;9.000;2022-07-23T07:39:57;7.15;;;5.85;;
30000;SDS011;16845;48.670;9.000;2022-07-23T07:42:25;9.75;;;5.55;;
30000;SDS011;16845;48.670;9.000;2022-07-23T07:44:53;6.57;;;5.88;;
30000;SDS011;16845;48.670;9.000;2022-07-23T07:47:21;10.38;;;5.75;;
30000;SDS011;16845;48.670;9.000;2022-07-23T07:49:49;7.25;;;4.50;;
30000;SDS011;16845;48.670;9.000;2022-07-23T07:52:18;7.53;;;4.93;;
30000;SDS011;16845;48.670;9.000;2022-07-23T07:54:47;5.45;;;4.95;;
30000;SDS011;16845;48.670;9.000;2022-07-23T07:57:15;6.05;;;5.00;;
30000;SDS011;16845;48.670;9.000;2022-07-23T07:59:43;5.88;;;5.28;;
30000;SDS011;16845;48.670;9.000;2022-07-23T08:02:11;8.23;;;5.22;;
30000;SDS011;16845;48.670;9.000;2022-07-23T08:04:39;5.78;;;5.00;;
30000;SDS011;16845;48.670;9.000;2022-07-23T08:07:07;5.63;;;4.95;;
30000;SDS011;16845;48.670;9.000;2022-07-23T08:09:34;5.32;;;4.82;;
30000;SDS011;16845;48.670;9.000;2022-07-23T08:12:04;10.85;;;5.45;;
30000;SDS011;16845;48.670;9.000;2022-07-23T08:14:32;6.88;;;5.22;;
30000;SDS011;16845;48.670;9.000;2022-07-23T08:17:00;6.18;;;5.25;;
30000;SDS011;16845;48.670;9.000;2022-07-23T08:19:39;6.97;;;5.10;;
30000;SDS011;16845;48.670;9.000;2022-07-23T08:22:08;5.90;;;4.70;;
30000;SDS011;16845;48.670;9.000;2022-07-23T08:24:36;5.13;;;4.63;;
30000;SDS011;16845;48.670;9.000;2022-07-23T08:27:05;7.55;;;4.68;;
30000;SDS011;16845;48.670;9.000;2022-07-23T08:29:33;9.50;;;4.65;;
30000;SDS011;16845;48.670;9.000;2022-07-23T08:32:01;8.35;;;5.68;;
30000;SDS011;16845;48.670;9.000;2022-07-23T08:34:49;7.20;;;4.90;;
30000;SDS011;16845;48.670;9.000;2022-07-23T08:37:17;11.65;;;4.20;;
30000;SDS011;16845;48.670;9.000;2022-07-23T08:39:45;7.97;;;5.05;;
30000;SDS011;16845;48.670;9.000;2022-07-23T08:42:14;5.90;;;4.78;;
30000;SDS011;16845;48.670;9.000;2022-07-23T08:44:44;5.18;;;4.68;;
30000;SDS011;16845;48.670;9.000;2022-07-23T08:47:12;5.10;;;4.60;;
30000;SDS011;16845;48.670;9.000;2022-07-23T08:49:43;5.95;;;4.40;;
30000;SDS011;16845;48.670;9.000;2022-07-23T08:52:13;7.85;;;4.35;;
30000;SDS011;16845;48.670;9.000;2022-07-23T08:54:41;4.75;;;4.35;;
30000;SDS011;16845;48.670;9.000;2022-07-23T08:57:10;4.90;;;4.40;;
30000;SDS011;16845;48.670;9.000;2022-07-23T08:59:39;6.93;;;4.90;;
30000;SDS011;16845;48.670;9.000;2022-07-23T09:02:07;6.68;;;4.88;;
30000;SDS011;16845;48.670;9.000;2022-07-23T09:04:35;5.20;;;4.70;;
30000;SDS011;16845;48.670;9.000;2022-07-23T09:07:03;5.25;;;4.75;;
30000;SDS011;16845;48.670;9.000;2022-07-23T09:09:32;7.95;;;4.65;;
30000;SDS011;16845;48.670;9.000;2022-07-23T09:12:03;6.72;;;4.93;;
30000;SDS011;16845;48.670;9.000;2022-07-23T09:14:36;5.45;;;4.65;;
30000;SDS011;16845;48.670;9.000;2022-07-23T09:17:09;6.85;;;4.97;;
30000;SDS011;16845;48.670;9.000;2022-07-23T09:19:38;5.57;;;4.78;;
30000;SDS011;16845;48.670;9.000;2022-07-23T09:22:16;4.95;;;4.50;;
30000;SDS011;16845;48.670;9.000;2022-07-23T09:25:02;6.65;;;4.35;;
30000;SDS011;16845;48.670;9.000;2022-07-23T09:27:45;10.05;;;5.43;;
30000;SDS011;16845;48.670;9.000;2022-07-23T09:30:20;5.75;;;5.10;;
30000;SDS011;16845;48.670;9.000;2022-07-23T09:35:48;11.10;;;5.47;;
30000;SDS011;16845;48.670;9.000;2022-07-23T09:38:17;5.68;;;5.07;;
30000;SDS011;16845;48.670;9.000;2022-07-23T09:40:46;5.07;;;4.55;;
30000;SDS011;16845;48.670;9.000;2022-07-23T09:43:32;6.75;;;5.05;;
30000;SDS011;16845;48.670;9.000;2022-07-23T09:48:45;6.10;;;5.13;;
30000;SDS011;16845;48.670;9.000;2022-07-23T09:51:14;6.13;;;5.53;;
30000;SDS011;16845;48.670;9.000;2022-07-23T09:53:43;6.25;;;5.60;;
30000;SDS011;16845;48.670;9.000;2022-07-23T09:56:11;8.30;;;5.43;;
30000;SDS011;16845;48.670;9.000;2022-07-23T09:58:41;7.25;;;4.80;;
30000;SDS011;16845;48.670;9.000;2022-07-23T10:01:14;8.07;;;6.05;;
30000;SDS011;16845;48.670;9.000;2022-07-23T10:03:42;6.03;;;5.43;;
30000;SDS011;16845;48.670;9.000;2022-07-23T10:06:12;6.72;;;5.32;;
30000;SDS011;16845;48.670;9.000;2022-07-23T10:08:41;6.45;;;4.90;;
30000;SDS011;16845;48.670;9.000;2022-07-23T10:11:11;4.90;;;4.40;;
30000;SDS011;16845;48.670;9.000;2022-07-23T10:13:41;5.65;;;4.75;;
30000;SDS011;16845;48.670;9.000;2022-07-23T10:16:27;4.40;;;4.00;;
30000;SDS011;16845;48.670;9.000;2022-07-23T10:18:55;5.97;;;4.43;;
30000;SDS011;16845;48.670;9.000;2022-07-23T10:21:27;5.32;;;4.60;;
30000;SDS011;16845;48.670;9.000;2022-07-23T10:24:04;5.88;;;4.20;;
30000;SDS011;16845;48.670;9.000;2022-07-23T10:26:45;5.97;;;4.75;;
30000;SDS011;16845;48.670;9.000;2022-07-23T10:29:21;4.82;;;4.35;;
30000;SDS011;16845;48.670;9.000;2022-07-23T10:31:58;9.40;;;4.40;;
30000;SDS011;16845;48.670;9.000;2022-07-23T10:34:35;4.60;;;4.20;;
30000;SDS011;16845;48.670;9.000;2022-07-23T10:39:47;5.32;;;3.85;;
30000;SDS011;16845;48.670;9.000;2022-07-23T10:42:16;4.90;;;4.18;;
30000;SDS011;16845;48.670;9.000;2022-07-23T10:44:45;4.65;;;4.07;;
30000;SDS011;16845;48.670;9.000;2022-07-23T10:47:21;4.43;;;4.03;;
30000;SDS011;16845;48.670;9.000;2022-07-23T10:50:22;6.28;;;4.20;;
30000;SDS011;16845;48.670;9.000;2022-07-23T10:53:11;5.32;;;4.00;;
30000;SDS011;16845;48.670;9.000;2022-07-23T10:55:47;7.57;;;4.28;;
30000;SDS011;16845;48.670;9.000;2022-07-23T10:58:18;5.07;;;4.07;;
30000;SDS011;16845;48.670;9.000;2022-07-23T11:00:50;4.32;;;3.92;;
30000;SDS011;16845;48.670;9.000;2022-07-23T11:03:28;6.10;;;4.93;;
30000;SDS011;16845;48.670;9.000;2022-07-23T11:05:59;10.75;;;9.35;;
30000;SDS011;16845;48.670;9.000;2022-07-23T11:08:28;4.63;;;3.90;;
30000;SDS011;16845;48.670;9.000;2022-07-23T11:13:49;3.95;;;3.53;;
30000;SDS011;16845;48.670;9.000;2022-07-23T11:16:24;5.35;;;3.45;;
30000;SDS011;16845;48.670;9.000;2022-07-23T11:18:53;4.13;;;3.63;;
30000;SDS011;16845;48.670;9.000;2022-07-23T11:21:42;5.00;;;4.00;;
30000;SDS011;16845;48.670;9.000;2022-07-23T11:24:13;6.35;;;3.95;;
30000;SDS011;16845;48.670;9.000;2022-07-23T11:26:55;4.13;;;3.80;;
30000;SDS011;16845;48.670;9.000;2022-07-23T11:29:44;11.57;;;3.97;;
30000;SDS011;16845;48.670;9.000;2022-07-23T11:32:33;5.82;;;5.25;;
30000;SDS011;16845;48.670;9.000;2022-07-23T11:35:24;6.45;;;4.00;;
30000;SDS011;16845;48.670;9.000;2022-07-23T11:37:54;4.57;;;4.18;;
30000;SDS011;16845;48.670;9.000;2022-07-23T11:43:02;4.55;;;4.13;;
30000;SDS011;16845;48.670;9.000;2022-07-23T11:45:32;5.28;;;4.55;;
30000;SDS011;16845;48.670;9.000;2022-07-23T11:48:02;4.90;;;4.30;;
30000;SDS011;16845;48.670;9.000;2022-07-23T11:50:31;4.00;;;3.67;;
30000;SDS011;16845;48.670;9.000;2022-07-23T11:53:00;6.18;;;4.78;;
30000;SDS011;16845;48.670;9.000;2022-07-23T11:55:28;4.72;;;4.32;;
30000;SDS011;16845;48.670;9.000;2022-07-23T11:57:57;7.70;;;4.57;;
30000;SDS011;16845;48.670;9.000;2022-07-23T12:00:29;4.35;;;3.92;;
30000;SDS011;16845;48.670;9.000;2022-07-23T12:03:05;4.25;;;3.85;;
30000;SDS011;16845;48.670;9.000;2022-07-23T12:05:35;8.45;;;4.13;;
30000;SDS011;16845;48.670;9.000;2022-07-23T12:08:04;5.60;;;4.38;;
30000;SDS011;16845;48.670;9.000;2022-07-23T12:10:34;8.23;;;4.90;;
30000;SDS011;16845;48.670;9.000;2022-07-23T12:13:05;4.70;;;4.18;;
30000;SDS011;16845;48.670;9.000;2022-07-23T12:15:37;4.85;;;4.40;;
30000;SDS011;16845;48.670;9.000;2022-07-23T12:18:07;5.72;;;5.18;;
30000;SDS011;16845;48.670;9.000;2022-07-23T12:20:41;6.93;;;4.78;;
30000;SDS011;16845;48.670;9.000;2022-07-23T12:23:11;6.50;;;4.55;;
30000;SDS011;16845;48.670;9.000;2022-07-23T12:25:46;5.00;;;4.47;;
30000;SDS011;16845;48.670;9.000;2022-07-23T12:28:18;5.68;;;4.40;;
30000;SDS011;16845;48.670;9.000;2022-07-23T12:30:47;5.85;;;4.55;;
30000;SDS011;16845;48.670;9.000;2022-07-23T12:33:21;9.60;;;4.47;;
30000;SDS011;16845;48.670;9.000;2022-07-23T12:35:51;6.65;;;4.50;;
30000;SDS011;16845;48.670;9.000;2022-07-23T12:38:21;6.28;;;4.05;;
30000;SDS011;16845;48.670;9.000;2022-07-23T12:40:50;5.55;;;5.05;;
30000;SDS011;16845;48.670;9.000;2022-07-23T12:43:22;7.95;;;4.95;;
30000;SDS011;16845;48.670;9.000;2022-07-23T12:45:51;9.25;;;5.93;;
30000;SDS011;16845;48.670;9.000;2022-07-23T12:48:24;6.47;;;4.82;;
30000;SDS011;16845;48.670;9.000;2022-07-23T12:50:54;6.45;;;5.20;;
30000;SDS011;16845;48.670;9.000;2022-07-23T12:53:25;6.82;;;4.90;;
30000;SDS011;16845;48.670;9.000;2022-07-23T12:56:02;10.15;;;5.85;;
30000;SDS011;16845;48.670;9.000;2022-07-23T12:58:46;7.55;;;5.55;;
30000;SDS011;16845;48.670;9.000;2022-07-23T13:01:24;5.65;;;5.05;;
30000;SDS011;16845;48.670;9.000;2022-07-23T13:03:57;6.00;;;4.47;;
30000;SDS011;16845;48.670;9.000;2022-07-23T13:06:28;5.38;;;4.32;;
30000;SDS011;16845;48.670;9.000;2022-07-23T13:08:58;4.80;;;4.35;;
30000;SDS011;16845;48.670;9.000;2022-07-23T13:11:28;9.02;;;5.10;;
30000;SDS011;16845;48.670;9.000;2022-07-23T13:13:58;5.22;;;4.80;;
30000;SDS011;16845;48.670;9.000;2022-07-23T13:16:26;4.68;;;4.18;;
30000;SDS011;16845;48.670;9.000;2022-07-23T13:18:55;5.53;;;5.07;;
30000;SDS011;16845;48.670;9.000;2022-07-23T13:21:25;6.32;;;4.50;;
30000;SDS011;16845;48.670;9.000;2022-07-23T13:23:54;7.43;;;4.20;;
30000;SDS011;16845;48.670;9.000;2022-07-23T13:26:22;5.45;;;4.32;;
30000;SDS011;16845;48.670;9.000;2022-07-23T13:28:50;6.65;;;4.72;;
30000;SDS011;16845;48.670;9.000;2022-07-23T13:31:20;7.47;;;4.93;;
30000;SDS011;16845;48.670;9.000;2022-07-23T13:33:50;6.63;;;5.10;;
30000;SDS011;16845;48.670;9.000;2022-07-23T13:36:18;5.82;;;4.97;;
30000;SDS011;16845;48.670;9.000;2022-07-23T13:38:46;5.43;;;4.93;;
30000;SDS011;16845;48.670;9.000;2022-07-23T13:41:15;8.32;;;5.13;;
30000;SDS011;16845;48.670;9.000;2022-07-23T13:43:44;6.70;;;5.57;;
30000;SDS011;16845;48.670;9.000;2022-07-23T13:46:13;7.72;;;5.50;;
30000;SDS011;16845;48.670;9.000;2022-07-23T13:48:42;9.90;;;5.43;;
30000;SDS011;16845;48.670;9.000;2022-07-23T13:51:10;6.00;;;5.20;;
30000;SDS011;16845;48.670;9.000;2022-07-23T13:53:39;6.13;;;5.18;;
30000;SDS011;16845;48.670;9.000;2022-07-23T13:56:07;6.57;;;5.88;;
30000;SDS011;16845;48.670;9.000;2022-07-23T13:58:35;10.40;;;5.57;;
30000;SDS011;16845;48.670;9.000;2022-07-23T14:01:03;7.03;;;6.30;;
30000;SDS011;16845;48.670;9.000;2022-07-23T14:03:31;8.07;;;6.32;;
30000;SDS011;16845;48.670;9.000;2022-07-23T14:06:01;8.55;;;6.40;;
30000;SDS011;16845;48.670;9.000;2022-07-23T14:08:41;10.63;;;6.30;;
30000;SDS011;16845;48.670;9.000;2022-07-23T14:11:10;8.73;;;5.78;;
30000;SDS011;16845;48.670;9.000;2022-07-23T14:13:38;9.00;;;6.63;;
30000;SDS011;16845;48.670;9.000;2022-07-23T14:16:06;8.18;;;5.97;;
30000;SDS011;16845;48.670;9.000;2022-07-23T14:18:35;8.15;;;6.00;;
30000;SDS011;16845;48.670;9.000;2022-07-23T14:21:04;6.88;;;6.10;;
30000;SDS011;16845;48.670;9.000;2022-07-23T14:23:32;12.60;;;6.57;;
30000;SDS011;16845;48.670;9.000;2022-07-23T14:26:00;7.75;;;5.78;;
30000;SDS011;16845;48.670;9.000;2022-07-23T14:28:31;8.25;;;6.75;;
30000;SDS011;16845;48.670;9.000;2022-07-23T14:31:01;12.63;;;6.55;;
30000;SDS011;16845;48.670;9.000;2022-07-23T14:33:29;7.30;;;6.40;;
30000;SDS011;16845;48.670;9.000;2022-07-23T14:35:57;6.65;;;5.47;;
30000;SDS011;16845;48.670;9.000;2022-07-23T14:38:27;6.20;;;5.43;;
30000;SDS011;16845;48.670;9.000;2022-07-23T14:40:56;8.05;;;5.43;;
30000;SDS011;16845;48.670;9.000;2022-07-23T14:43:25;6.90;;;6.20;;
30000;SDS011;16845;48.670;9.000;2022-07-23T14:45:54;6.22;;;5.63;;
30000;SDS011;16845;48.670;9.000;2022-07-23T14:48:22;6.70;;;5.82;;
30000;SDS011;16845;48.670;9.000;2022-07-23T14:50:50;9.45;;;6.57;;
30000;SDS011;16845;48.670;9.000;2022-07-23T14:53:19;7.60;;;5.82;;
30000;SDS011;16845;48.670;9.000;2022-07-23T14:55:52;9.05;;;5.93;;
30000;SDS011;16845;48.670;9.000;2022-07-23T14:58:21;7.40;;;6.60;;
30000;SDS011;16845;48.670;9.000;2022-07-23T15:00:49;12.73;;;6.60;;
30000;SDS011;16845;48.670;9.000;2022-07-23T15:03:17;6.93;;;5.65;;
30000;SDS011;16845;48.670;9.000;2022-07-23T15:05:45;8.00;;;6.13;;
30000;SDS011;16845;48.670;9.000;2022-07-23T15:08:13;6.45;;;5.47;;
30000;SDS011;16845;48.670;9.000;2022-07-23T15:10:48;6.45;;;5.75;;
30000;SDS011;16845;48.670;9.000;2022-07-23T15:13:17;9.30;;;6.50;;
30000;SDS011;16845;48.670;9.000;2022-07-23T15:15:45;9.00;;;5.55;;
30000;SDS011;16845;48.670;9.000;2022-07-23T15:18:16;8.13;;;6.13;;